Time;durP1;ratioP1;P1;durP2;ratioP2;P2;SDS_P1;SDS_P2;PMS_P1;PMS_P2;Temp;Humidity;BMP_temperature;BMP_pressure;BME280_temperature;BME280_humidity;BME280_pressure;Samples;Min_cycle;Max_cycle;Signal;HPM_P1;HPM_P2
2021/09/16 00:00:09;;;;;;;0.90;0.40;;;19.60;99.90;;;;;;4842738;29;20598;-76
2021/09/16 00:02:42;;;;;;;0.90;0.40;;;19.60;99.90;;;;;;4842603;29;20471;-76
2021/09/16 00:05:11;;;;;;;0.90;0.40;;;19.60;99.90;;;;;;4842614;29;20412;-76
2021/09/16 00:07:39;;;;;;;0.90;0.40;;;19.60;99.90;;;;;;4842505;29;20435;-75
2021/09/16 00:10:08;;;;;;;0.90;0.40;;;19.60;99.90;;;;;;4842573;29;20472;-75
2021/09/16 00:12:37;;;;;;;0.90;0.40;;;19.40;99.90;;;;;;4842649;29;20440;-75
2021/09/16 00:15:07;;;;;;;0.90;0.40;;;19.40;99.90;;;;;;4843027;29;20967;-76
2021/09/16 00:17:35;;;;;;;0.90;0.50;;;19.40;99.90;;;;;;4842987;29;20466;-76
2021/09/16 00:20:07;;;;;;;0.90;0.40;;;19.30;99.90;;;;;;4825955;29;20485;-76
2021/09/16 00:22:35;;;;;;;0.90;0.40;;;19.40;99.90;;;;;;4842504;29;20846;-74
2021/09/16 00:25:04;;;;;;;0.90;0.40;;;19.30;99.90;;;;;;4842698;29;20524;-75
2021/09/16 00:27:32;;;;;;;0.90;0.40;;;19.30;99.90;;;;;;4842531;29;20411;-75
2021/09/16 00:30:01;;;;;;;0.80;0.40;;;19.30;99.90;;;;;;4842835;29;20959;-75
2021/09/16 00:32:29;;;;;;;0.90;0.40;;;19.20;99.90;;;;;;4842974;29;20528;-75
2021/09/16 00:34:57;;;;;;;0.80;0.40;;;19.20;99.90;;;;;;4842769;29;20423;-75
2021/09/16 00:37:27;;;;;;;0.80;0.40;;;19.20;99.90;;;;;;4842831;29;20419;-74
2021/09/16 00:39:55;;;;;;;0.90;0.40;;;19.10;99.90;;;;;;4842999;29;20526;-76
2021/09/16 00:42:23;;;;;;;0.90;0.40;;;19.10;99.90;;;;;;4845838;29;20453;-75
2021/09/16 00:44:51;;;;;;;0.80;0.40;;;19.10;99.90;;;;;;4833574;29;20887;-76
2021/09/16 00:47:19;;;;;;;0.80;0.40;;;19.10;99.90;;;;;;4850895;29;20468;-76
2021/09/16 00:49:47;;;;;;;0.90;0.50;;;18.90;99.90;;;;;;4849218;29;20473;-76
2021/09/16 00:52:17;;;;;;;0.80;0.40;;;18.80;99.90;;;;;;4842429;29;20464;-75
2021/09/16 00:54:47;;;;;;;0.80;0.40;;;18.80;99.90;;;;;;4842056;29;20411;-75
2021/09/16 00:57:21;;;;;;;0.90;0.50;;;18.70;99.90;;;;;;4841749;29;20414;-75
2021/09/16 00:59:50;;;;;;;0.90;0.40;;;18.60;99.90;;;;;;4841728;29;20485;-75
2021/09/16 01:02:18;;;;;;;0.90;0.40;;;18.60;99.90;;;;;;4843754;29;20468;-76
2021/09/16 01:04:47;;;;;;;0.90;0.40;;;18.50;99.90;;;;;;4849646;29;20437;-76
2021/09/16 01:07:15;;;;;;;0.80;0.40;;;18.50;99.90;;;;;;4849272;29;20805;-76
2021/09/16 01:09:44;;;;;;;0.80;0.40;;;18.50;99.90;;;;;;4849884;29;20513;-76
2021/09/16 01:12:13;;;;;;;0.80;0.40;;;18.50;99.90;;;;;;4845396;29;20429;-75
2021/09/16 01:14:41;;;;;;;0.80;0.40;;;18.60;99.90;;;;;;4841350;29;20538;-75
2021/09/16 01:17:09;;;;;;;0.80;0.40;;;18.60;99.90;;;;;;4824855;29;20440;-74
2021/09/16 01:19:37;;;;;;;0.80;0.40;;;18.50;99.90;;;;;;4841683;29;20471;-75
2021/09/16 01:22:06;;;;;;;0.80;0.40;;;18.50;99.90;;;;;;4841542;29;20478;-75
2021/09/16 01:24:36;;;;;;;0.80;0.40;;;18.60;99.90;;;;;;4825308;29;20825;-76
2021/09/16 01:27:04;;;;;;;0.90;0.40;;;18.50;99.90;;;;;;4841749;29;20536;-76
2021/09/16 01:29:32;;;;;;;0.87;0.40;;;18.50;99.90;;;;;;4841485;29;20437;-75
2021/09/16 01:32:04;;;;;;;0.80;0.40;;;18.50;99.90;;;;;;4840693;29;20885;-75
2021/09/16 01:34:32;;;;;;;0.80;0.40;;;18.50;99.90;;;;;;4841465;29;20435;-75
2021/09/16 01:37:00;;;;;;;0.80;0.40;;;18.50;99.90;;;;;;4841201;29;20411;-74
2021/09/16 01:39:32;;;;;;;0.80;0.40;;;18.50;99.90;;;;;;4840908;29;20437;-75
2021/09/16 01:42:01;;;;;;;0.80;0.40;;;18.50;99.90;;;;;;4841154;29;20550;-75
2021/09/16 01:44:29;;;;;;;0.80;0.40;;;18.40;99.90;;;;;;4841294;29;20475;-75
2021/09/16 01:46:57;;;;;;;0.80;0.40;;;18.40;99.90;;;;;;4841037;29;20419;-75
2021/09/16 01:49:25;;;;;;;0.80;0.40;;;18.50;99.90;;;;;;4841274;29;20408;-75
2021/09/16 01:51:53;;;;;;;0.80;0.40;;;18.50;99.90;;;;;;4841711;29;21137;-76
2021/09/16 01:54:21;;;;;;;0.80;0.40;;;18.50;99.90;;;;;;4827541;29;20527;-76
2021/09/16 01:56:49;;;;;;;0.80;0.40;;;18.50;99.90;;;;;;4841987;29;20464;-75
2021/09/16 01:59:20;;;;;;;0.80;0.40;;;18.50;99.90;;;;;;4841899;29;20879;-76
2021/09/16 02:01:48;;;;;;;0.80;0.40;;;18.50;99.90;;;;;;4841653;29;20507;-75
2021/09/16 02:04:16;;;;;;;0.80;0.40;;;18.50;99.90;;;;;;4840881;29;20441;-74
2021/09/16 02:06:44;;;;;;;0.80;0.40;;;18.40;99.90;;;;;;4845148;29;20407;-74
2021/09/16 02:09:12;;;;;;;0.80;0.40;;;18.40;99.90;;;;;;4842171;29;20416;-75
2021/09/16 02:11:40;;;;;;;0.80;0.40;;;18.40;99.90;;;;;;4918400;23;20527;-69
2021/09/16 02:14:09;;;;;;;0.80;0.40;;;18.40;99.90;;;;;;4895456;29;20419;-68
2021/09/16 02:16:38;;;;;;;0.80;0.40;;;18.40;99.90;;;;;;4913014;29;20431;-69
2021/09/16 02:19:06;;;;;;;0.83;0.40;;;18.40;99.90;;;;;;4912192;29;20492;-69
2021/09/16 02:21:34;;;;;;;0.80;0.40;;;18.40;99.90;;;;;;4895697;29;20469;-69
2021/09/16 02:24:02;;;;;;;0.87;0.50;;;18.40;99.90;;;;;;4912677;29;20791;-69
2021/09/16 02:26:30;;;;;;;0.80;0.40;;;18.40;99.90;;;;;;4913104;29;20977;-69
2021/09/16 02:28:59;;;;;;;0.80;0.40;;;18.30;99.90;;;;;;4912109;29;20425;-69
2021/09/16 02:31:27;;;;;;;0.80;0.40;;;18.40;99.90;;;;;;4912722;29;20491;-69
2021/09/16 02:33:56;;;;;;;0.80;0.40;;;18.40;99.90;;;;;;4912455;29;20955;-69
2021/09/16 02:36:26;;;;;;;0.80;0.40;;;18.40;99.90;;;;;;4896038;29;20972;-69
2021/09/16 02:38:54;;;;;;;0.80;0.40;;;18.40;99.90;;;;;;4912347;29;20429;-69
2021/09/16 02:41:22;;;;;;;0.80;0.40;;;18.40;99.90;;;;;;4895285;29;20451;-69
2021/09/16 02:43:50;;;;;;;0.80;0.40;;;18.40;99.90;;;;;;4913096;29;20428;-69
2021/09/16 02:46:19;;;;;;;0.80;0.40;;;18.40;99.90;;;;;;4899285;29;20437;-69
2021/09/16 02:48:47;;;;;;;0.80;0.40;;;18.40;99.90;;;;;;4915493;29;20527;-69
2021/09/16 02:51:17;;;;;;;0.80;0.40;;;18.40;99.90;;;;;;4916136;29;20400;-69
2021/09/16 02:53:45;;;;;;;0.80;0.40;;;18.40;99.90;;;;;;4915950;29;20443;-69
2021/09/16 02:56:13;;;;;;;0.80;0.40;;;18.20;99.90;;;;;;4916334;29;20432;-69
2021/09/16 02:58:41;;;;;;;0.80;0.40;;;18.20;99.90;;;;;;4898458;29;20942;-69
2021/09/16 03:01:10;;;;;;;0.80;0.40;;;18.20;99.90;;;;;;4898823;29;20457;-69
2021/09/16 03:03:38;;;;;;;0.80;0.40;;;18.20;99.90;;;;;;4899213;29;20828;-69
2021/09/16 03:06:06;;;;;;;0.80;0.40;;;18.20;99.90;;;;;;4899349;29;20442;-69
2021/09/16 03:08:36;;;;;;;0.80;0.40;;;18.10;99.90;;;;;;4916192;29;20407;-69
2021/09/16 03:11:04;;;;;;;0.80;0.40;;;18.10;99.90;;;;;;4915954;29;20449;-69
2021/09/16 03:13:32;;;;;;;0.80;0.40;;;18.10;99.90;;;;;;4916189;29;20445;-69
2021/09/16 03:16:00;;;;;;;0.80;0.40;;;18.20;99.90;;;;;;4899202;29;20446;-69
2021/09/16 03:18:29;;;;;;;0.80;0.40;;;18.20;99.90;;;;;;4915794;29;20467;-69
2021/09/16 03:20:57;;;;;;;0.80;0.40;;;18.40;99.90;;;;;;4915552;29;20460;-69
2021/09/16 03:23:25;;;;;;;0.80;0.40;;;18.40;99.90;;;;;;4914792;29;20485;-69
2021/09/16 03:25:54;;;;;;;0.80;0.40;;;18.40;99.90;;;;;;4898447;29;20787;-69
2021/09/16 03:28:22;;;;;;;0.80;0.40;;;18.50;99.90;;;;;;4915217;29;20433;-69
2021/09/16 03:30:51;;;;;;;0.80;0.40;;;18.50;99.90;;;;;;4915457;29;20422;-69
2021/09/16 03:33:19;;;;;;;0.80;0.40;;;18.60;99.90;;;;;;4915716;29;20432;-69
2021/09/16 03:35:47;;;;;;;0.80;0.40;;;18.60;99.90;;;;;;4898668;29;20430;-69
2021/09/16 03:38:16;;;;;;;0.80;0.40;;;18.60;99.90;;;;;;4915356;29;20415;-69
2021/09/16 03:40:44;;;;;;;0.80;0.40;;;18.70;99.90;;;;;;4915376;29;20400;-69
2021/09/16 03:43:13;;;;;;;0.80;0.40;;;18.60;99.90;;;;;;4898896;29;21001;-69
2021/09/16 03:45:41;;;;;;;0.80;0.40;;;18.60;99.90;;;;;;4898684;29;20437;-69
2021/09/16 03:48:10;;;;;;;0.90;0.50;;;18.60;99.90;;;;;;4915372;29;20460;-69
2021/09/16 03:50:38;;;;;;;0.80;0.40;;;18.60;99.90;;;;;;4898667;29;20435;-69
2021/09/16 03:53:06;;;;;;;0.90;0.40;;;18.60;99.90;;;;;;4898351;29;20525;-69
2021/09/16 03:55:35;;;;;;;0.90;0.40;;;18.70;99.90;;;;;;4897399;29;20758;-69
2021/09/16 03:58:03;;;;;;;0.87;0.40;;;18.60;99.90;;;;;;4915178;29;20396;-70
2021/09/16 04:00:33;;;;;;;0.80;0.40;;;18.60;99.90;;;;;;4898352;29;20415;-69
2021/09/16 04:03:07;;;;;;;0.80;0.40;;;18.60;99.90;;;;;;4898443;29;20448;-69
2021/09/16 04:05:36;;;;;;;0.90;0.40;;;18.50;99.90;;;;;;4915030;29;20889;-69
2021/09/16 04:08:05;;;;;;;0.80;0.40;;;18.40;99.90;;;;;;4897899;29;20416;-69
2021/09/16 04:10:33;;;;;;;0.80;0.40;;;18.30;99.90;;;;;;4914460;29;20732;-69
2021/09/16 04:13:02;;;;;;;0.80;0.40;;;18.30;99.90;;;;;;4915084;29;20938;-69
2021/09/16 04:15:31;;;;;;;0.80;0.40;;;18.10;99.90;;;;;;4914243;29;20404;-69
2021/09/16 04:17:59;;;;;;;0.80;0.40;;;18.10;99.90;;;;;;4914403;29;20460;-68
2021/09/16 04:20:28;;;;;;;0.80;0.40;;;18.10;99.90;;;;;;4914684;29;20400;-68
2021/09/16 04:22:56;;;;;;;0.80;0.40;;;17.90;99.90;;;;;;4897959;29;20481;-69
2021/09/16 04:25:24;;;;;;;0.80;0.40;;;17.90;99.90;;;;;;4914640;29;20436;-69
2021/09/16 04:27:52;;;;;;;0.80;0.40;;;17.70;99.90;;;;;;4914646;29;20542;-69
2021/09/16 04:30:20;;;;;;;0.80;0.40;;;17.70;99.90;;;;;;4897447;29;20416;-69
2021/09/16 04:32:50;;;;;;;0.80;0.40;;;17.70;99.90;;;;;;4897502;29;20963;-69
2021/09/16 04:35:18;;;;;;;0.80;0.40;;;17.70;99.90;;;;;;4914494;29;20633;-69
2021/09/16 04:37:46;;;;;;;0.80;0.40;;;17.70;99.90;;;;;;4913968;29;20929;-69
2021/09/16 04:40:15;;;;;;;0.80;0.40;;;17.70;99.90;;;;;;4897080;29;20424;-69
2021/09/16 04:42:47;;;;;;;0.80;0.40;;;17.70;99.90;;;;;;4897216;29;20822;-69
2021/09/16 04:45:15;;;;;;;0.80;0.40;;;17.70;99.90;;;;;;4914102;29;20404;-69
2021/09/16 04:47:44;;;;;;;0.80;0.40;;;17.70;99.90;;;;;;4914547;29;20416;-69
2021/09/16 04:50:13;;;;;;;0.80;0.40;;;17.80;99.90;;;;;;4897386;29;20423;-69
2021/09/16 04:52:42;;;;;;;0.80;0.40;;;17.80;99.90;;;;;;4913354;29;20469;-68
2021/09/16 04:55:10;;;;;;;0.80;0.40;;;17.70;99.90;;;;;;4914246;29;20427;-69
2021/09/16 04:57:39;;;;;;;0.80;0.40;;;17.70;99.90;;;;;;4896939;29;20437;-69
2021/09/16 05:00:08;;;;;;;0.80;0.40;;;17.60;99.90;;;;;;4913979;29;20436;-70
2021/09/16 05:02:36;;;;;;;0.80;0.40;;;17.70;99.90;;;;;;4913836;29;20954;-70
2021/09/16 05:05:06;;;;;;;0.80;0.40;;;17.70;99.90;;;;;;4896902;29;20424;-70
2021/09/16 05:07:35;;;;;;;0.80;0.40;;;17.70;99.90;;;;;;4914252;29;20493;-70
2021/09/16 05:10:05;;;;;;;0.80;0.40;;;17.70;99.90;;;;;;4914961;29;20452;-70
2021/09/16 05:12:33;;;;;;;0.80;0.40;;;17.70;99.90;;;;;;4898222;29;20977;-70
2021/09/16 05:15:01;;;;;;;0.90;0.50;;;17.60;99.90;;;;;;4897427;29;20437;-68
2021/09/16 05:17:30;;;;;;;0.80;0.40;;;17.60;99.90;;;;;;4896551;29;20438;-69
2021/09/16 05:19:58;;;;;;;0.80;0.40;;;17.50;99.90;;;;;;4913917;29;20400;-69
2021/09/16 05:22:27;;;;;;;0.80;0.40;;;17.50;99.90;;;;;;4896903;29;20493;-69
2021/09/16 05:25:02;;;;;;;0.80;0.40;;;17.50;99.90;;;;;;4898617;29;20442;-69
2021/09/16 05:27:30;;;;;;;0.80;0.40;;;17.50;99.90;;;;;;4915874;29;20428;-70
2021/09/16 05:29:59;;;;;;;0.80;0.40;;;17.60;99.90;;;;;;4914850;29;20816;-69
2021/09/16 05:32:28;;;;;;;0.80;0.40;;;17.80;99.90;;;;;;4896938;29;20455;-69
2021/09/16 05:34:56;;;;;;;0.80;0.40;;;17.80;99.90;;;;;;4896717;29;20626;-69
2021/09/16 05:37:24;;;;;;;0.80;0.40;;;17.90;99.90;;;;;;4913145;29;20423;-69
2021/09/16 05:39:55;;;;;;;0.80;0.40;;;17.90;99.90;;;;;;4913705;29;20405;-69
2021/09/16 05:42:26;;;;;;;0.80;0.40;;;17.80;99.90;;;;;;4913596;29;20793;-69
2021/09/16 05:44:54;;;;;;;0.80;0.40;;;17.80;99.90;;;;;;4913393;29;20456;-69
2021/09/16 05:47:22;;;;;;;0.80;0.40;;;17.80;99.90;;;;;;4913628;29;20399;-70
2021/09/16 05:49:50;;;;;;;0.80;0.40;;;17.80;99.90;;;;;;4896521;29;20416;-69
2021/09/16 05:52:19;;;;;;;0.80;0.40;;;17.80;99.90;;;;;;4913509;29;20479;-69
2021/09/16 05:54:47;;;;;;;0.80;0.40;;;17.80;99.90;;;;;;4913894;29;20411;-69
2021/09/16 05:57:15;;;;;;;0.80;0.40;;;17.90;99.90;;;;;;4896754;29;20420;-69
2021/09/16 05:59:45;;;;;;;0.80;0.40;;;18.00;99.90;;;;;;4913836;29;20396;-69
2021/09/16 06:02:13;;;;;;;0.80;0.40;;;18.00;99.90;;;;;;4913273;29;20445;-69
2021/09/16 06:04:42;;;;;;;0.80;0.40;;;18.00;99.90;;;;;;4900280;29;20550;-68
2021/09/16 06:07:11;;;;;;;0.80;0.40;;;18.10;99.90;;;;;;4879486;29;20489;-67
2021/09/16 06:09:40;;;;;;;0.80;0.40;;;18.00;99.90;;;;;;4896480;29;20416;-68
2021/09/16 06:12:09;;;;;;;0.80;0.40;;;18.10;99.90;;;;;;4913228;29;20465;-69
2021/09/16 06:14:37;;;;;;;0.80;0.40;;;17.90;99.90;;;;;;4913175;29;20417;-68
2021/09/16 06:17:07;;;;;;;0.90;0.40;;;17.90;99.90;;;;;;4913112;29;20396;-67
2021/09/16 06:19:35;;;;;;;0.80;0.40;;;17.90;99.90;;;;;;4914813;29;20544;-67
2021/09/16 06:22:04;;;;;;;0.80;0.40;;;17.90;99.90;;;;;;4916939;29;20830;-68
2021/09/16 06:24:32;;;;;;;1.00;0.60;;;17.90;99.90;;;;;;4900232;29;20447;-68
2021/09/16 06:27:00;;;;;;;0.80;0.40;;;17.90;99.90;;;;;;4899387;29;20431;-68
2021/09/16 06:29:28;;;;;;;0.80;0.40;;;17.90;99.90;;;;;;4900918;29;20503;-69
2021/09/16 06:31:57;;;;;;;0.80;0.40;;;18.00;99.90;;;;;;4918844;29;20428;-70
2021/09/16 06:34:26;;;;;;;0.80;0.40;;;18.20;99.90;;;;;;4918345;29;20408;-71
2021/09/16 06:36:54;;;;;;;0.90;0.40;;;18.30;99.90;;;;;;4900493;29;20445;-71
2021/09/16 06:39:22;;;;;;;0.90;0.40;;;18.30;99.90;;;;;;4900660;29;20462;-70
2021/09/16 06:41:51;;;;;;;0.90;0.40;;;18.30;99.90;;;;;;4899779;29;20948;-69
2021/09/16 06:44:19;;;;;;;0.80;0.40;;;18.30;99.90;;;;;;4883160;29;20452;-70
2021/09/16 06:46:47;;;;;;;0.90;0.40;;;18.20;99.90;;;;;;4883344;29;20450;-70
2021/09/16 06:49:15;;;;;;;0.80;0.40;;;18.30;99.90;;;;;;4904618;29;20783;-70
2021/09/16 06:51:45;;;;;;;0.80;0.40;;;18.30;99.90;;;;;;4901378;29;20484;-71
2021/09/16 06:54:14;;;;;;;0.80;0.40;;;18.30;99.90;;;;;;4901282;29;20926;-71
2021/09/16 06:56:42;;;;;;;0.80;0.40;;;18.40;99.90;;;;;;4901733;29;20444;-70
2021/09/16 06:59:10;;;;;;;0.80;0.40;;;18.40;99.90;;;;;;4901327;29;20431;-71
2021/09/16 07:01:39;;;;;;;0.80;0.40;;;18.50;99.90;;;;;;4917735;29;20683;-72
2021/09/16 07:04:08;;;;;;;0.80;0.40;;;18.40;99.90;;;;;;4897269;29;20496;-72
2021/09/16 07:06:37;;;;;;;0.90;0.40;;;18.40;99.90;;;;;;4900023;29;20611;-71
2021/09/16 07:09:06;;;;;;;0.90;0.40;;;18.50;99.90;;;;;;4899488;29;20999;-71
2021/09/16 07:11:35;;;;;;;0.90;0.40;;;18.60;99.90;;;;;;4899455;29;20436;-70
2021/09/16 07:14:03;;;;;;;0.83;0.40;;;18.60;99.90;;;;;;4882920;29;20784;-72
2021/09/16 07:16:32;;;;;;;0.90;0.40;;;18.60;99.90;;;;;;4905648;29;20835;-71
2021/09/16 07:19:00;;;;;;;0.90;0.40;;;18.60;99.90;;;;;;4901273;29;20907;-71
2021/09/16 07:21:29;;;;;;;0.90;0.40;;;18.80;99.90;;;;;;4919148;29;20516;-71
2021/09/16 07:23:57;;;;;;;0.90;0.40;;;18.80;99.90;;;;;;4917883;29;20820;-71
2021/09/16 07:26:26;;;;;;;0.90;0.40;;;19.00;99.90;;;;;;4919011;29;20456;-71
2021/09/16 07:28:59;;;;;;;0.90;0.40;;;19.00;99.90;;;;;;4918144;29;20432;-71
2021/09/16 07:31:27;;;;;;;0.90;0.40;;;19.00;99.90;;;;;;4913659;29;20408;-72
2021/09/16 07:33:56;;;;;;;0.90;0.40;;;19.10;99.90;;;;;;4915323;29;20445;-71
2021/09/16 07:36:25;;;;;;;0.90;0.40;;;19.30;99.90;;;;;;4915496;29;20405;-72
2021/09/16 07:38:53;;;;;;;0.90;0.40;;;19.50;99.90;;;;;;4915119;29;20837;-70
2021/09/16 07:41:21;;;;;;;0.90;0.40;;;19.40;1.00;;;;;;4915401;29;20408;-71
2021/09/16 07:43:51;;;;;;;0.90;0.40;;;19.30;1.00;;;;;;4915856;29;20428;-71
2021/09/16 07:46:19;;;;;;;0.90;0.40;;;19.30;1.00;;;;;;4915605;29;20400;-71
2021/09/16 07:48:47;;;;;;;0.90;0.40;;;19.50;1.00;;;;;;4915337;29;20420;-72
2021/09/16 07:51:15;;;;;;;0.90;0.40;;;19.60;1.00;;;;;;4915451;29;20400;-72
2021/09/16 07:53:44;;;;;;;0.90;0.40;;;19.50;99.90;;;;;;4899052;29;20432;-72
2021/09/16 07:56:12;;;;;;;0.90;0.40;;;19.60;1.00;;;;;;4898323;29;20469;-72
2021/09/16 07:58:42;;;;;;;0.90;0.40;;;19.70;1.00;;;;;;4898354;29;20426;-71
2021/09/16 08:01:12;;;;;;;0.90;0.40;;;19.60;99.90;;;;;;4914816;29;20920;-72
2021/09/16 08:03:41;;;;;;;0.90;0.40;;;19.40;99.90;;;;;;4915320;29;20536;-72
2021/09/16 08:06:10;;;;;;;0.90;0.40;;;19.40;99.90;;;;;;4896869;29;20452;-72
2021/09/16 08:08:38;;;;;;;0.90;0.40;;;19.20;99.90;;;;;;4906533;29;20406;-71
2021/09/16 08:11:06;;;;;;;0.90;0.40;;;19.30;99.90;;;;;;4924864;23;20557;-71
2021/09/16 08:13:35;;;;;;;0.90;0.40;;;19.40;99.90;;;;;;4904481;29;20800;-72
2021/09/16 08:16:03;;;;;;;0.90;0.40;;;19.60;99.90;;;;;;4895864;29;20448;-70
2021/09/16 08:18:33;;;;;;;0.90;0.40;;;19.60;99.90;;;;;;4908769;29;20412;-70
2021/09/16 08:21:02;;;;;;;0.90;0.40;;;19.70;99.90;;;;;;4904482;29;20452;-70
2021/09/16 08:23:30;;;;;;;0.90;0.40;;;20.10;99.90;;;;;;4905992;29;20480;-70
2021/09/16 08:25:58;;;;;;;0.90;0.40;;;20.30;99.90;;;;;;4905433;29;20429;-72
2021/09/16 08:28:27;;;;;;;0.90;0.40;;;20.50;99.90;;;;;;4905729;29;20409;-71
2021/09/16 08:30:55;;;;;;;0.90;0.40;;;20.40;99.90;;;;;;4903763;29;20417;-72
2021/09/16 08:33:23;;;;;;;0.90;0.40;;;20.40;99.90;;;;;;4902671;29;20450;-72
2021/09/16 08:35:53;;;;;;;0.90;0.40;;;20.50;99.90;;;;;;4889914;29;20432;-70
2021/09/16 08:38:21;;;;;;;0.90;0.40;;;20.20;99.90;;;;;;4905598;29;20409;-72
2021/09/16 08:40:49;;;;;;;0.90;0.40;;;19.70;99.90;;;;;;4914212;29;20437;-72
2021/09/16 08:43:20;;;;;;;0.90;0.40;;;19.40;99.90;;;;;;4921463;29;20471;-70
2021/09/16 08:45:48;;;;;;;0.90;0.40;;;19.40;99.90;;;;;;4898823;29;20470;-73
2021/09/16 08:48:17;;;;;;;0.90;0.40;;;19.40;99.90;;;;;;4918563;29;20449;-72
2021/09/16 08:50:45;;;;;;;0.90;0.40;;;19.40;99.90;;;;;;4922693;29;20432;-73
2021/09/16 08:53:17;;;;;;;0.90;0.40;;;19.40;99.90;;;;;;4919556;29;20431;-74
2021/09/16 08:55:46;;;;;;;0.90;0.40;;;19.50;99.90;;;;;;4919575;29;20483;-71
2021/09/16 08:58:15;;;;;;;0.90;0.40;;;20.00;99.90;;;;;;4900486;29;20453;-72
2021/09/16 09:00:43;;;;;;;0.90;0.40;;;20.40;99.90;;;;;;4921030;29;20528;-72
2021/09/16 09:03:12;;;;;;;0.90;0.40;;;20.50;99.90;;;;;;4921555;29;20606;-72
2021/09/16 09:05:42;;;;;;;0.90;0.40;;;20.20;99.90;;;;;;4917251;29;21001;-73
2021/09/16 09:08:11;;;;;;;0.90;0.40;;;19.70;99.90;;;;;;4893885;29;21012;-73
2021/09/16 09:10:44;;;;;;;0.90;0.40;;;19.50;99.90;;;;;;4920787;29;20499;-74
2021/09/16 09:13:15;;;;;;;0.90;0.40;;;19.20;99.90;;;;;;4916246;29;20796;-73
2021/09/16 09:15:46;;;;;;;0.90;0.40;;;19.30;99.90;;;;;;4903728;29;20409;-72
2021/09/16 09:18:16;;;;;;;0.90;0.40;;;19.30;99.90;;;;;;4907551;29;20653;-72
2021/09/16 09:20:57;;;;;;;0.90;0.40;;;19.40;99.90;;;;;;4912553;29;20420;-74
2021/09/16 09:23:29;;;;;;;0.90;0.40;;;19.40;99.90;;;;;;4918955;29;20442;-73
2021/09/16 09:26:01;;;;;;;0.90;0.40;;;19.70;99.90;;;;;;4926398;29;20443;-73
2021/09/16 09:28:33;;;;;;;0.90;0.40;;;19.80;99.90;;;;;;4911778;29;20409;-70
2021/09/16 09:31:15;;;;;;;0.90;0.40;;;19.60;99.90;;;;;;4914179;29;20449;-71
2021/09/16 09:33:54;;;;;;;0.90;0.40;;;19.50;99.90;;;;;;4925781;29;20453;-72
2021/09/16 09:36:24;;;;;;;0.90;0.40;;;19.20;99.90;;;;;;4912326;29;20444;-70
2021/09/16 09:38:57;;;;;;;0.90;0.50;;;19.10;99.90;;;;;;4910819;29;20404;-71
2021/09/16 09:41:30;;;;;;;0.90;0.40;;;19.10;99.90;;;;;;4925772;29;20408;-72
2021/09/16 09:44:03;;;;;;;0.90;0.40;;;19.20;99.90;;;;;;4921102;29;20404;-72
2021/09/16 09:46:42;;;;;;;0.90;0.40;;;19.00;99.90;;;;;;4913918;29;20444;-72
2021/09/16 09:49:12;;;;;;;0.90;0.40;;;18.90;99.90;;;;;;4913483;29;20426;-70
2021/09/16 09:51:42;;;;;;;0.90;0.40;;;19.00;99.90;;;;;;4913093;29;20439;-73
2021/09/16 09:54:15;;;;;;;0.90;0.40;;;19.40;99.90;;;;;;4912150;29;20407;-73
2021/09/16 09:56:58;;;;;;;0.90;0.40;;;19.90;99.90;;;;;;4896128;29;20448;-71
2021/09/16 09:59:29;;;;;;;0.90;0.40;;;20.00;99.90;;;;;;4912471;29;20461;-72
2021/09/16 10:02:04;;;;;;;0.90;0.40;;;20.10;99.90;;;;;;4913111;29;20994;-71
2021/09/16 10:04:33;;;;;;;0.90;0.40;;;19.70;99.90;;;;;;4913359;29;20496;-71
2021/09/16 10:07:01;;;;;;;0.90;0.40;;;19.80;99.90;;;;;;4914401;29;20471;-71
2021/09/16 10:09:30;;;;;;;0.90;0.40;;;20.00;99.90;;;;;;4896474;29;20424;-72
2021/09/16 10:12:00;;;;;;;0.90;0.50;;;20.00;99.90;;;;;;4912855;29;20452;-72
2021/09/16 10:14:28;;;;;;;0.90;0.40;;;20.10;99.90;;;;;;4912302;29;20400;-72
2021/09/16 10:16:57;;;;;;;0.90;0.40;;;20.30;99.90;;;;;;4894525;29;20426;-71
2021/09/16 10:19:26;;;;;;;0.90;0.40;;;20.50;99.90;;;;;;4893805;29;20838;-71
2021/09/16 10:21:54;;;;;;;0.90;0.40;;;20.70;99.90;;;;;;4901963;29;20794;-71
2021/09/16 10:24:25;;;;;;;0.90;0.40;;;20.70;99.90;;;;;;4886467;29;20454;-72
2021/09/16 10:26:53;;;;;;;0.90;0.40;;;20.50;99.90;;;;;;4894147;29;20987;-72
2021/09/16 10:29:37;;;;;;;0.90;0.40;;;20.20;99.90;;;;;;4893019;29;20430;-72
2021/09/16 10:32:39;;;;;;;0.90;0.50;;;19.90;99.90;;;;;;4893904;29;20428;-71
2021/09/16 10:35:21;;;;;;;0.90;0.40;;;19.60;99.90;;;;;;4854280;29;20442;-71
2021/09/16 10:37:50;;;;;;;0.90;0.40;;;19.40;99.90;;;;;;4893296;29;20437;-71
2021/09/16 10:40:35;;;;;;;0.90;0.40;;;19.40;99.90;;;;;;4893309;29;20760;-70
2021/09/16 10:43:04;;;;;;;0.90;0.40;;;19.20;99.90;;;;;;4891773;29;20449;-71
2021/09/16 10:45:37;;;;;;;0.90;0.40;;;19.40;99.90;;;;;;4892499;29;20772;-71
2021/09/16 10:48:32;;;;;;;0.90;0.40;;;19.40;99.90;;;;;;4893320;29;20447;-71
2021/09/16 10:51:05;;;;;;;0.90;0.40;;;19.50;99.90;;;;;;4876572;29;20453;-71
2021/09/16 10:53:41;;;;;;;0.90;0.40;;;19.40;99.90;;;;;;4908031;29;20485;-73
2021/09/16 10:56:39;;;;;;;0.90;0.40;;;19.10;99.90;;;;;;4911181;29;20441;-72
2021/09/16 10:59:09;;;;;;;0.90;0.40;;;19.20;99.90;;;;;;4904755;29;20604;-72
2021/09/16 11:02:00;;;;;;;0.90;0.40;;;19.40;99.90;;;;;;4911850;29;20433;-71
2021/09/16 11:05:06;;;;;;;0.90;0.40;;;19.60;99.90;;;;;;4912115;29;20440;-71
2021/09/16 11:07:55;;;;;;;0.90;0.40;;;19.70;99.90;;;;;;4915375;29;20428;-70
2021/09/16 11:10:52;;;;;;;0.90;0.40;;;19.50;99.90;;;;;;4914920;29;20495;-71
2021/09/16 11:13:41;;;;;;;0.90;0.50;;;19.30;99.90;;;;;;4909125;29;20542;-71
2021/09/16 11:16:10;;;;;;;0.90;0.40;;;19.20;99.90;;;;;;4930376;29;20402;-72
2021/09/16 11:18:46;;;;;;;0.90;0.40;;;19.10;99.90;;;;;;4919773;29;20405;-71
2021/09/16 11:21:14;;;;;;;0.90;0.40;;;19.30;99.90;;;;;;4896676;29;20738;-71
2021/09/16 11:23:45;;;;;;;0.90;0.50;;;19.40;99.90;;;;;;4896719;29;21188;-71
2021/09/16 11:26:16;;;;;;;0.90;0.40;;;19.70;99.90;;;;;;4903064;29;20914;-71
2021/09/16 11:28:45;;;;;;;0.90;0.40;;;20.00;99.90;;;;;;4915147;29;21028;-73
2021/09/16 11:31:20;;;;;;;0.90;0.40;;;20.00;99.90;;;;;;4914740;29;20416;-73
2021/09/16 11:33:50;;;;;;;0.90;0.40;;;19.80;99.90;;;;;;4908802;29;21161;-71
2021/09/16 11:36:18;;;;;;;0.90;0.40;;;19.70;99.90;;;;;;4903242;29;20430;-70
2021/09/16 11:38:47;;;;;;;0.90;0.40;;;19.80;99.90;;;;;;4908010;29;20411;-70
2021/09/16 11:41:15;;;;;;;0.90;0.40;;;19.90;99.90;;;;;;4895672;29;21097;-71
2021/09/16 11:43:46;;;;;;;0.90;0.40;;;19.90;99.90;;;;;;4907380;29;20459;-72
2021/09/16 11:46:15;;;;;;;0.90;0.40;;;19.80;99.90;;;;;;4913924;29;20520;-71
2021/09/16 11:48:43;;;;;;;0.90;0.40;;;19.80;99.90;;;;;;4908209;29;20565;-70
2021/09/16 11:51:12;;;;;;;0.90;0.40;;;19.90;99.90;;;;;;4897411;29;20438;-71
2021/09/16 11:53:41;;;;;;;0.90;0.40;;;20.00;99.90;;;;;;4878473;29;20462;-71
2021/09/16 11:56:10;;;;;;;0.90;0.40;;;19.90;99.90;;;;;;4901596;29;20408;-70
2021/09/16 11:58:39;;;;;;;0.90;0.40;;;19.90;99.90;;;;;;4913948;29;20412;-72
2021/09/16 12:01:09;;;;;;;0.90;0.40;;;20.10;99.90;;;;;;4914287;29;20412;-71
2021/09/16 12:03:40;;;;;;;0.90;0.40;;;20.40;99.90;;;;;;4915285;29;20592;-70
2021/09/16 12:06:10;;;;;;;0.90;0.40;;;20.70;99.90;;;;;;4897084;29;20515;-72
2021/09/16 12:08:45;;;;;;;0.90;0.40;;;20.80;99.90;;;;;;4914619;29;20425;-70
2021/09/16 12:11:15;;;;;;;0.90;0.40;;;21.10;99.90;;;;;;4913116;29;20939;-71
2021/09/16 12:13:52;;;;;;;0.90;0.40;;;21.30;98.00;;;;;;4914018;29;20998;-71
2021/09/16 12:16:23;;;;;;;0.90;0.40;;;21.50;96.70;;;;;;4906880;29;20433;-72
2021/09/16 12:18:55;;;;;;;0.90;0.40;;;22.00;95.80;;;;;;4913519;29;20426;-70
2021/09/16 12:21:27;;;;;;;0.90;0.40;;;22.40;93.70;;;;;;4913307;29;20448;-70
2021/09/16 12:24:03;;;;;;;0.90;0.40;;;22.60;91.50;;;;;;4914891;29;20436;-70
2021/09/16 12:26:32;;;;;;;0.90;0.40;;;22.30;88.40;;;;;;4913148;29;20785;-70
2021/09/16 12:29:03;;;;;;;0.90;0.40;;;21.90;88.80;;;;;;4912933;29;20404;-71
2021/09/16 12:31:33;;;;;;;0.90;0.40;;;21.40;88.80;;;;;;4893285;29;20482;-71
2021/09/16 12:34:05;;;;;;;0.90;0.40;;;20.90;86.90;;;;;;4907292;29;20412;-71
2021/09/16 12:36:34;;;;;;;0.90;0.40;;;20.50;88.00;;;;;;4913503;29;20971;-71
2021/09/16 12:39:13;;;;;;;0.90;0.40;;;20.30;90.80;;;;;;4913241;29;21279;-72
2021/09/16 12:41:43;;;;;;;0.90;0.40;;;20.40;95.40;;;;;;4887457;29;20519;-76
2021/09/16 12:44:15;;;;;;;0.90;0.40;;;20.50;94.90;;;;;;4905813;29;20417;-72
2021/09/16 12:46:50;;;;;;;0.90;0.40;;;20.50;91.20;;;;;;4906133;29;20481;-70
2021/09/16 12:49:36;;;;;;;0.90;0.40;;;20.50;88.70;;;;;;4931905;29;20422;-72
2021/09/16 12:52:11;;;;;;;0.90;0.50;;;20.40;89.20;;;;;;4928242;29;20505;-73
2021/09/16 12:54:47;;;;;;;0.90;0.40;;;20.60;88.80;;;;;;4931246;29;20418;-69
2021/09/16 12:57:20;;;;;;;0.90;0.40;;;20.70;84.90;;;;;;4913123;29;20987;-72
2021/09/16 12:59:54;;;;;;;0.90;0.40;;;20.80;86.20;;;;;;4911695;29;20488;-73
2021/09/16 13:02:24;;;;;;;0.90;0.40;;;21.10;86.60;;;;;;4927657;29;20454;-71